createdAt,value
2023-01-17T00:02:14.862Z,4.83
2023-01-17T00:05:00.723Z,5.00
2023-01-17T00:07:46.903Z,4.37
2023-01-17T00:10:23.074Z,4.90
2023-01-17T00:12:53.568Z,5.63
2023-01-17T00:15:23.137Z,5.50
2023-01-17T00:17:50.896Z,4.50
2023-01-17T00:20:38.878Z,4.53
2023-01-17T00:23:32.900Z,4.30
2023-01-17T00:26:05.826Z,5.10
2023-01-17T00:28:38.143Z,4.73
2023-01-17T00:31:06.717Z,4.43
2023-01-17T00:33:33.679Z,4.80
2023-01-17T00:36:01.594Z,4.77
2023-01-17T00:38:33.619Z,3.93
2023-01-17T00:41:11.203Z,4.03
2023-01-17T00:43:57.710Z,4.37
2023-01-17T00:46:43.249Z,3.33
2023-01-17T00:49:29.197Z,4.10
2023-01-17T00:52:14.961Z,3.73
2023-01-17T00:55:00.482Z,3.27
2023-01-17T00:57:45.808Z,3.53
2023-01-17T01:00:31.621Z,3.73
2023-01-17T01:03:17.108Z,3.43
2023-01-17T01:06:02.718Z,4.07
2023-01-17T01:08:49.074Z,3.10
2023-01-17T01:11:42.523Z,4.00
2023-01-17T01:14:30.218Z,4.33
2023-01-17T01:17:15.855Z,4.40
2023-01-17T01:20:01.054Z,2.90
2023-01-17T01:22:46.517Z,4.47
2023-01-17T01:25:32.021Z,3.63
2023-01-17T01:28:31.414Z,3.90
2023-01-17T01:31:21.386Z,4.20
2023-01-17T01:33:48.318Z,3.40
2023-01-17T01:36:15.661Z,4.70
2023-01-17T01:38:42.554Z,4.23
2023-01-17T01:41:10.168Z,3.33
2023-01-17T01:43:41.760Z,2.93
2023-01-17T01:46:13.131Z,3.13
2023-01-17T01:48:42.500Z,2.87
2023-01-17T01:51:17.386Z,3.10
2023-01-17T01:53:47.979Z,3.63
2023-01-17T01:56:16.305Z,3.83
2023-01-17T01:58:47.684Z,3.33
2023-01-17T02:01:15.434Z,3.63
2023-01-17T02:03:48.309Z,2.70
2023-01-17T02:06:25.546Z,3.10
2023-01-17T02:09:02.491Z,3.20
2023-01-17T02:11:30.129Z,3.17
2023-01-17T02:13:57.207Z,2.43
2023-01-17T02:16:34.812Z,3.87
2023-01-17T02:19:35.693Z,2.60
2023-01-17T02:22:27.515Z,2.90
2023-01-17T02:25:13.301Z,2.50
2023-01-17T02:28:07.479Z,4.23
2023-01-17T02:30:35.838Z,3.60
2023-01-17T02:33:12.269Z,3.33
2023-01-17T02:35:53.097Z,3.97
2023-01-17T02:38:41.800Z,4.13
2023-01-17T02:41:29.642Z,3.30
2023-01-17T02:43:57.509Z,3.90
2023-01-17T02:46:24.600Z,4.10
2023-01-17T02:48:52.263Z,3.73
2023-01-17T02:51:39.377Z,3.90
2023-01-17T02:54:35.243Z,4.40
2023-01-17T02:57:20.937Z,4.30
2023-01-17T02:59:54.116Z,3.17
2023-01-17T03:02:39.535Z,3.30
2023-01-17T03:05:23.153Z,3.20
2023-01-17T03:07:52.401Z,3.97
2023-01-17T03:10:20.425Z,3.30
2023-01-17T03:12:51.043Z,3.23
2023-01-17T03:15:18.038Z,2.80
2023-01-17T03:17:49.681Z,3.57
2023-01-17T03:20:16.947Z,4.53
2023-01-17T03:22:44.432Z,3.73
2023-01-17T03:25:11.942Z,4.07
2023-01-17T03:27:38.980Z,4.10
2023-01-17T03:30:07.462Z,3.30
2023-01-17T03:32:34.875Z,3.37
2023-01-17T03:35:01.722Z,3.90
2023-01-17T03:37:28.620Z,4.30
2023-01-17T03:39:55.553Z,4.40
2023-01-17T03:42:22.424Z,4.43
2023-01-17T03:44:49.692Z,3.63
2023-01-17T03:47:17.014Z,4.23
2023-01-17T03:49:44.241Z,4.37
2023-01-17T03:52:11.029Z,3.87
2023-01-17T03:54:37.973Z,3.93
2023-01-17T03:57:04.950Z,5.10
2023-01-17T03:59:34.693Z,5.33
2023-01-17T04:02:01.767Z,4.23
2023-01-17T04:04:28.794Z,4.30
2023-01-17T04:06:56.628Z,5.40
2023-01-17T04:09:23.425Z,5.93
2023-01-17T04:11:53.371Z,4.30
2023-01-17T04:14:20.275Z,5.97
2023-01-17T04:16:47.983Z,5.20
2023-01-17T04:19:14.902Z,6.93
2023-01-17T04:21:41.825Z,5.67
2023-01-17T04:24:09.147Z,6.10
2023-01-17T04:26:36.527Z,5.87
2023-01-17T04:29:05.003Z,5.67
2023-01-17T04:31:32.332Z,5.50
2023-01-17T04:33:59.239Z,5.60
2023-01-17T04:36:26.498Z,6.87
2023-01-17T04:38:53.333Z,6.23
2023-01-17T04:41:20.745Z,6.57
2023-01-17T04:43:48.554Z,6.50
2023-01-17T04:46:15.555Z,6.17
2023-01-17T04:48:42.880Z,6.40
2023-01-17T04:51:09.809Z,7.00
2023-01-17T04:53:37.173Z,6.53
2023-01-17T04:56:04.511Z,6.83
2023-01-17T04:58:33.366Z,8.00
2023-01-17T05:01:08.113Z,5.53
2023-01-17T05:03:35.502Z,6.70
2023-01-17T05:06:02.868Z,6.67
2023-01-17T05:08:29.806Z,6.83
2023-01-17T05:10:56.787Z,7.40
2023-01-17T05:13:23.809Z,6.10
2023-01-17T05:15:50.762Z,6.53
2023-01-17T05:18:18.913Z,6.23
2023-01-17T05:20:45.801Z,5.93
2023-01-17T05:23:12.802Z,5.37
2023-01-17T05:25:44.179Z,4.83
2023-01-17T05:28:13.029Z,4.73
2023-01-17T05:30:40.089Z,4.50
2023-01-17T05:33:07.986Z,4.50
2023-01-17T05:35:34.893Z,5.80
2023-01-17T05:38:02.247Z,4.70
2023-01-17T05:40:33.427Z,6.60
2023-01-17T05:43:01.417Z,5.33
2023-01-17T05:45:30.685Z,5.27
2023-01-17T05:47:58.509Z,4.90
2023-01-17T05:50:31.761Z,5.27
2023-01-17T05:53:01.430Z,5.73
2023-01-17T05:55:34.686Z,5.23
2023-01-17T05:58:02.816Z,5.00
2023-01-17T06:00:30.850Z,6.60
2023-01-17T06:02:59.734Z,5.17
2023-01-17T06:05:27.675Z,5.80
2023-01-17T06:07:55.192Z,5.57
2023-01-17T06:10:22.329Z,6.47
2023-01-17T06:12:49.592Z,6.80
2023-01-17T06:15:17.733Z,5.77
2023-01-17T06:17:44.504Z,5.83
2023-01-17T06:20:12.273Z,6.43
2023-01-17T06:22:39.328Z,6.27
2023-01-17T06:25:06.948Z,6.30
2023-01-17T06:27:33.784Z,6.33
2023-01-17T06:30:00.416Z,6.10
2023-01-17T06:32:27.634Z,6.23
2023-01-17T06:34:54.343Z,7.87
2023-01-17T06:37:21.091Z,6.13
2023-01-17T06:39:47.830Z,7.40
2023-01-17T06:42:14.517Z,5.93
2023-01-17T06:44:41.117Z,5.43
2023-01-17T06:47:07.749Z,7.03
2023-01-17T06:49:34.457Z,4.50
2023-01-17T06:52:01.267Z,5.80
2023-01-17T06:54:27.890Z,5.10
2023-01-17T06:56:54.567Z,5.90
2023-01-17T06:59:21.746Z,6.57
2023-01-17T07:01:48.425Z,6.90
2023-01-17T07:04:15.203Z,6.83
2023-01-17T07:06:41.847Z,6.83
2023-01-17T07:09:08.448Z,8.03
2023-01-17T07:11:35.515Z,8.30
2023-01-17T07:14:02.173Z,9.60
2023-01-17T07:16:28.863Z,10.37
2023-01-17T07:18:56.929Z,11.80
2023-01-17T07:21:24.145Z,12.60
2023-01-17T07:23:50.821Z,13.00
2023-01-17T07:26:17.883Z,17.20
2023-01-17T07:28:44.532Z,15.03
2023-01-17T07:31:11.424Z,14.73
2023-01-17T07:33:38.690Z,16.83
2023-01-17T07:36:07.411Z,16.07
2023-01-17T07:38:34.865Z,16.43
2023-01-17T07:41:01.815Z,15.87
2023-01-17T07:43:28.482Z,18.30
2023-01-17T07:45:55.505Z,16.60
2023-01-17T07:48:24.428Z,15.03
2023-01-17T07:50:55.928Z,15.93
2023-01-17T07:53:27.726Z,16.70
2023-01-17T07:55:54.841Z,17.80
2023-01-17T07:58:21.848Z,16.60
2023-01-17T08:00:48.552Z,16.73
2023-01-17T08:03:18.294Z,16.03
2023-01-17T08:05:54.805Z,15.03
2023-01-17T08:08:21.601Z,16.57
2023-01-17T08:10:49.397Z,16.93
2023-01-17T08:13:16.033Z,20.50
2023-01-17T08:15:43.016Z,18.60
2023-01-17T08:18:09.923Z,18.50
2023-01-17T08:20:36.549Z,19.50
2023-01-17T08:23:03.204Z,18.50
2023-01-17T08:25:29.916Z,18.10
2023-01-17T08:27:57.824Z,19.33
2023-01-17T08:30:25.786Z,17.43
2023-01-17T08:32:52.645Z,17.70
2023-01-17T08:35:19.960Z,16.37
2023-01-17T08:37:48.309Z,17.87
2023-01-17T08:40:18.007Z,17.90
2023-01-17T08:42:44.902Z,18.20
2023-01-17T08:45:12.922Z,16.93
2023-01-17T08:47:39.546Z,16.30
2023-01-17T08:50:06.830Z,16.60
2023-01-17T08:52:33.794Z,17.30
2023-01-17T08:55:00.894Z,16.53
2023-01-17T08:57:28.171Z,17.33
2023-01-17T08:59:54.954Z,18.17
2023-01-17T09:02:23.984Z,18.03
2023-01-17T09:04:51.242Z,18.10
2023-01-17T09:07:20.392Z,16.80
2023-01-17T09:09:47.112Z,17.93
2023-01-17T09:12:14.082Z,17.83
2023-01-17T09:14:41.087Z,18.37
2023-01-17T09:17:07.801Z,17.53
2023-01-17T09:19:35.413Z,16.67
2023-01-17T09:22:04.432Z,17.00
2023-01-17T09:24:32.672Z,17.03
2023-01-17T09:27:00.167Z,18.43
2023-01-17T09:29:27.692Z,17.37
2023-01-17T09:31:54.371Z,17.93
2023-01-17T09:34:21.817Z,15.07
2023-01-17T09:36:48.564Z,17.37
2023-01-17T09:39:15.340Z,17.27
2023-01-17T09:41:51.392Z,15.63
2023-01-17T09:44:40.083Z,14.40
2023-01-17T09:47:31.259Z,16.30
2023-01-17T09:50:20.650Z,13.37
2023-01-17T09:52:47.956Z,16.00
2023-01-17T09:55:16.333Z,15.63
2023-01-17T09:58:10.501Z,14.47
2023-01-17T10:00:48.714Z,14.43
2023-01-17T10:03:28.682Z,15.30
2023-01-17T10:06:12.931Z,13.83
2023-01-17T10:09:15.840Z,15.20
2023-01-17T10:11:54.361Z,14.20
2023-01-17T10:14:55.039Z,13.97
2023-01-17T10:17:36.718Z,12.43
2023-01-17T10:20:34.140Z,12.23
2023-01-17T10:23:00.820Z,13.73
2023-01-17T10:25:43.757Z,14.30
2023-01-17T10:28:25.990Z,13.43
2023-01-17T10:30:58.226Z,14.47
2023-01-17T10:33:29.525Z,12.20
2023-01-17T10:36:04.013Z,13.17
2023-01-17T10:38:41.895Z,12.77
2023-01-17T10:41:30.060Z,12.07
2023-01-17T10:44:06.189Z,12.07
2023-01-17T10:46:48.284Z,13.60
2023-01-17T10:49:21.574Z,11.83
2023-01-17T10:52:01.601Z,12.60
2023-01-17T10:54:58.990Z,11.27
2023-01-17T10:57:28.138Z,12.73
2023-01-17T10:59:59.684Z,11.60
2023-01-17T11:02:33.000Z,11.87
2023-01-17T11:05:10.421Z,11.57
2023-01-17T11:07:40.057Z,11.60
2023-01-17T11:10:07.129Z,11.27
2023-01-17T11:12:40.750Z,10.87
2023-01-17T11:15:10.400Z,10.43
2023-01-17T11:17:48.742Z,10.70
2023-01-17T11:20:34.019Z,8.90
2023-01-17T11:23:12.614Z,10.13
2023-01-17T11:25:39.844Z,10.47
2023-01-17T11:28:19.613Z,10.00
2023-01-17T11:30:55.729Z,9.93
2023-01-17T11:33:47.622Z,9.57
2023-01-17T11:36:28.833Z,9.40
2023-01-17T11:39:06.851Z,9.83
2023-01-17T11:41:40.031Z,10.33
2023-01-17T11:44:23.120Z,10.53
2023-01-17T11:47:13.274Z,9.80
2023-01-17T11:49:50.024Z,9.40
2023-01-17T11:52:24.591Z,9.70
2023-01-17T11:54:54.320Z,8.33
2023-01-17T11:57:32.019Z,10.27
2023-01-17T12:00:13.275Z,8.93
2023-01-17T12:02:51.026Z,8.27
2023-01-17T12:05:24.193Z,8.93
2023-01-17T12:08:21.155Z,8.60
2023-01-17T12:10:57.170Z,8.47
2023-01-17T12:14:02.409Z,8.57
2023-01-17T12:16:59.468Z,8.30
2023-01-17T12:20:06.612Z,8.03
2023-01-17T12:22:48.143Z,8.73
2023-01-17T12:25:26.698Z,7.63
2023-01-17T12:28:22.111Z,10.17
2023-01-17T12:31:10.619Z,9.23
2023-01-17T12:33:55.067Z,9.37
2023-01-17T12:36:21.669Z,7.83
2023-01-17T12:38:49.458Z,6.90
2023-01-17T12:41:26.499Z,9.50
2023-01-17T12:43:59.927Z,9.60
2023-01-17T12:46:32.373Z,9.30
2023-01-17T12:49:16.499Z,9.03
2023-01-17T12:51:47.454Z,9.13
2023-01-17T12:54:24.188Z,9.60
2023-01-17T12:57:03.610Z,10.00
2023-01-17T12:59:34.389Z,8.30
2023-01-17T13:02:07.280Z,9.10
2023-01-17T13:04:57.489Z,9.00
2023-01-17T13:07:32.390Z,13.13
2023-01-17T13:10:08.173Z,9.87
2023-01-17T13:12:38.657Z,9.23
2023-01-17T13:15:17.163Z,8.40
2023-01-17T13:17:57.114Z,9.20
2023-01-17T13:20:47.494Z,8.40
2023-01-17T13:23:28.093Z,10.03
2023-01-17T13:25:57.365Z,7.77
2023-01-17T13:29:08.514Z,9.60
2023-01-17T13:32:16.623Z,8.80
2023-01-17T13:34:55.242Z,8.80
2023-01-17T13:38:08.323Z,9.00
2023-01-17T13:40:50.624Z,7.87
2023-01-17T13:43:35.538Z,8.67
2023-01-17T13:46:03.813Z,9.07
2023-01-17T13:48:40.873Z,8.00
2023-01-17T13:51:09.457Z,7.40
2023-01-17T13:53:36.794Z,8.30
2023-01-17T13:56:14.088Z,8.37
2023-01-17T13:58:58.348Z,8.03
2023-01-17T14:01:25.176Z,7.60
2023-01-17T14:03:52.347Z,7.20
2023-01-17T14:06:44.842Z,6.80
2023-01-17T14:09:14.485Z,6.77
2023-01-17T14:12:07.137Z,7.60
2023-01-17T14:14:36.968Z,7.27
2023-01-17T14:17:16.020Z,7.10
2023-01-17T14:19:47.896Z,7.77
2023-01-17T14:22:36.356Z,7.53
2023-01-17T14:25:12.497Z,7.07
2023-01-17T14:27:42.192Z,6.90
2023-01-17T14:30:18.869Z,7.37
2023-01-17T14:33:08.673Z,7.27
2023-01-17T14:36:00.787Z,7.83
2023-01-17T14:38:31.565Z,8.23
2023-01-17T14:41:08.657Z,7.33
2023-01-17T14:43:38.600Z,6.73
2023-01-17T14:46:41.640Z,7.17
2023-01-17T14:49:28.662Z,7.30
2023-01-17T14:52:00.831Z,6.90
2023-01-17T14:54:27.589Z,8.23
2023-01-17T14:57:26.202Z,7.07
2023-01-17T15:00:13.644Z,7.13
2023-01-17T15:02:42.766Z,7.03
2023-01-17T15:05:15.515Z,7.17
2023-01-17T15:07:44.751Z,7.00
2023-01-17T15:10:17.347Z,7.90
2023-01-17T15:12:47.158Z,6.33
2023-01-17T15:15:46.343Z,7.23
2023-01-17T15:18:24.744Z,9.87
2023-01-17T15:21:02.129Z,7.80
2023-01-17T15:23:37.275Z,7.10
2023-01-17T15:26:07.099Z,8.93
2023-01-17T15:28:35.014Z,9.40
2023-01-17T15:31:10.383Z,9.73
2023-01-17T15:33:46.521Z,8.10
2023-01-17T15:36:27.360Z,7.20
2023-01-17T15:38:59.602Z,7.50
2023-01-17T15:41:38.237Z,6.63
2023-01-17T15:44:06.365Z,7.20
2023-01-17T15:46:42.126Z,7.40
2023-01-17T15:49:20.758Z,9.83
2023-01-17T15:51:56.762Z,7.47
2023-01-17T15:54:24.622Z,6.90
2023-01-17T15:57:22.432Z,7.20
2023-01-17T16:00:20.210Z,7.50
2023-01-17T16:02:55.308Z,7.60
2023-01-17T16:05:22.587Z,7.00
2023-01-17T16:07:54.989Z,6.50
2023-01-17T16:10:31.755Z,7.27
2023-01-17T16:12:59.326Z,7.67
2023-01-17T16:15:27.960Z,7.57
2023-01-17T16:18:01.114Z,7.40
2023-01-17T16:20:44.613Z,8.17
2023-01-17T16:23:11.916Z,8.47
2023-01-17T16:25:38.795Z,8.20
2023-01-17T16:28:06.101Z,9.87
2023-01-17T16:30:33.688Z,8.63
2023-01-17T16:33:00.820Z,9.87
2023-01-17T16:35:30.559Z,7.47
2023-01-17T16:37:59.807Z,7.30
2023-01-17T16:40:29.478Z,5.83
2023-01-17T16:42:57.142Z,6.93
2023-01-17T16:45:24.936Z,7.20
2023-01-17T16:47:53.287Z,6.33
2023-01-17T16:50:24.083Z,8.33
2023-01-17T16:52:52.295Z,10.27
2023-01-17T16:55:21.974Z,11.97
2023-01-17T16:57:49.952Z,10.17
2023-01-17T17:00:17.670Z,9.70
2023-01-17T17:02:44.549Z,9.57
2023-01-17T17:05:11.963Z,8.90
2023-01-17T17:07:45.360Z,8.40
2023-01-17T17:10:14.424Z,8.67
2023-01-17T17:12:41.708Z,9.63
2023-01-17T17:15:09.585Z,7.47
2023-01-17T17:17:41.423Z,7.30
2023-01-17T17:20:14.314Z,6.60
2023-01-17T17:22:44.221Z,7.53
2023-01-17T17:25:12.088Z,9.80
2023-01-17T17:27:38.981Z,13.80
2023-01-17T17:30:06.649Z,19.37
2023-01-17T17:32:33.965Z,16.63
2023-01-17T17:35:01.555Z,12.90
2023-01-17T17:37:29.247Z,19.93
2023-01-17T17:39:57.206Z,14.27
2023-01-17T17:42:24.394Z,13.93
2023-01-17T17:44:52.198Z,12.30
2023-01-17T17:47:19.513Z,10.80
2023-01-17T17:49:46.936Z,8.67
2023-01-17T17:52:13.859Z,11.27
2023-01-17T17:54:40.807Z,6.63
2023-01-17T17:57:07.750Z,8.50
2023-01-17T17:59:35.079Z,7.60
2023-01-17T18:02:02.098Z,8.77
2023-01-17T18:04:29.419Z,8.70
2023-01-17T18:06:58.274Z,9.37
2023-01-17T18:09:25.351Z,9.03
2023-01-17T18:11:52.461Z,8.33
2023-01-17T18:14:21.353Z,8.17
2023-01-17T18:16:48.276Z,7.50
2023-01-17T18:19:21.175Z,8.77
2023-01-17T18:21:50.185Z,9.43
2023-01-17T18:24:19.561Z,10.33
2023-01-17T18:26:52.488Z,8.53
2023-01-17T18:29:21.724Z,8.00
2023-01-17T18:31:50.087Z,9.93
2023-01-17T18:34:23.800Z,9.70
2023-01-17T18:36:51.396Z,8.53
2023-01-17T18:39:24.507Z,9.17
2023-01-17T18:41:51.417Z,10.13
2023-01-17T18:44:22.006Z,10.20
2023-01-17T18:46:50.568Z,13.67
2023-01-17T18:49:20.888Z,12.40
2023-01-17T18:51:50.290Z,15.13
2023-01-17T18:54:18.123Z,17.20
2023-01-17T18:56:45.241Z,13.30
2023-01-17T18:59:18.926Z,12.13
2023-01-17T19:01:46.227Z,11.53
2023-01-17T19:04:14.591Z,11.30
2023-01-17T19:06:43.909Z,12.03
2023-01-17T19:09:12.930Z,11.70
2023-01-17T19:11:39.682Z,11.43
2023-01-17T19:14:07.070Z,9.30
2023-01-17T19:16:39.021Z,10.67
2023-01-17T19:19:09.004Z,10.20
2023-01-17T19:21:36.197Z,11.80
2023-01-17T19:24:03.411Z,18.77
2023-01-17T19:26:30.231Z,17.63
2023-01-17T19:28:58.878Z,17.87
2023-01-17T19:31:30.485Z,16.00
2023-01-17T19:33:59.364Z,14.67
2023-01-17T19:36:35.393Z,15.20
2023-01-17T19:39:06.669Z,16.87
2023-01-17T19:41:35.743Z,11.00
2023-01-17T19:44:07.771Z,11.40
2023-01-17T19:46:35.810Z,12.13
2023-01-17T19:49:06.376Z,10.70
2023-01-17T19:51:33.370Z,9.57
2023-01-17T19:54:02.681Z,10.33
2023-01-17T19:56:30.039Z,10.87
2023-01-17T19:59:00.889Z,11.27
2023-01-17T20:01:33.331Z,11.70
2023-01-17T20:04:02.441Z,11.47
2023-01-17T20:06:32.055Z,10.73
2023-01-17T20:08:58.980Z,11.30
2023-01-17T20:11:26.719Z,11.57
2023-01-17T20:13:56.457Z,11.10
2023-01-17T20:16:24.978Z,11.83
2023-01-17T20:18:52.218Z,11.30
2023-01-17T20:21:23.949Z,12.03
2023-01-17T20:23:52.254Z,12.73
2023-01-17T20:26:24.148Z,13.57
2023-01-17T20:28:51.811Z,13.10
2023-01-17T20:31:24.107Z,14.00
2023-01-17T20:33:53.347Z,13.10
2023-01-17T20:36:23.223Z,11.00
2023-01-17T20:38:50.280Z,14.33
2023-01-17T20:41:19.751Z,13.10
2023-01-17T20:43:52.323Z,12.33
2023-01-17T20:46:23.287Z,12.90
2023-01-17T20:48:51.781Z,14.13
2023-01-17T20:51:20.011Z,13.37
2023-01-17T20:53:51.945Z,13.80
2023-01-17T20:56:19.703Z,14.30
2023-01-17T20:58:46.635Z,18.67
2023-01-17T21:01:19.696Z,16.33
2023-01-17T21:03:49.198Z,19.17
2023-01-17T21:06:15.993Z,20.57
2023-01-17T21:08:44.207Z,15.00
2023-01-17T21:11:13.222Z,14.63
2023-01-17T21:13:40.863Z,14.20
2023-01-17T21:16:09.513Z,12.67
2023-01-17T21:18:36.579Z,15.00
2023-01-17T21:21:07.633Z,13.30
2023-01-17T21:23:35.593Z,11.87
2023-01-17T21:26:02.368Z,15.30
2023-01-17T21:28:31.201Z,15.10
2023-01-17T21:30:58.847Z,11.77
2023-01-17T21:33:26.983Z,12.80
2023-01-17T21:35:53.605Z,11.00
2023-01-17T21:38:20.750Z,11.37
2023-01-17T21:40:47.444Z,11.90
2023-01-17T21:43:15.684Z,11.23
2023-01-17T21:45:42.942Z,11.37
2023-01-17T21:48:12.363Z,10.70
2023-01-17T21:50:39.457Z,11.00
2023-01-17T21:53:07.691Z,9.20
2023-01-17T21:55:52.976Z,13.17
2023-01-17T21:58:38.607Z,11.20
2023-01-17T22:01:17.609Z,11.63
2023-01-17T22:03:49.038Z,10.67
2023-01-17T22:06:16.062Z,11.20
2023-01-17T22:08:43.034Z,9.87
2023-01-17T22:11:12.226Z,10.23
2023-01-17T22:13:40.181Z,9.80
2023-01-17T22:16:10.297Z,10.23
2023-01-17T22:18:39.915Z,10.80
2023-01-17T22:21:17.608Z,9.40
2023-01-17T22:23:55.411Z,9.97
2023-01-17T22:26:25.200Z,12.40
2023-01-17T22:28:53.724Z,9.60
2023-01-17T22:31:25.139Z,8.80
2023-01-17T22:33:56.091Z,10.73
2023-01-17T22:36:24.175Z,10.97
2023-01-17T22:38:51.206Z,10.47
2023-01-17T22:41:20.451Z,11.10
2023-01-17T22:43:49.852Z,11.47
2023-01-17T22:46:19.352Z,11.67
2023-01-17T22:48:46.846Z,12.60
2023-01-17T22:51:15.842Z,13.00
2023-01-17T22:53:48.270Z,12.10
2023-01-17T22:56:18.064Z,11.83
2023-01-17T22:58:45.392Z,11.80
2023-01-17T23:01:33.758Z,11.30
2023-01-17T23:04:05.108Z,11.73
2023-01-17T23:06:37.183Z,13.13
2023-01-17T23:09:07.286Z,13.00
2023-01-17T23:11:38.955Z,13.40
2023-01-17T23:14:24.135Z,13.13
2023-01-17T23:17:12.275Z,13.73
2023-01-17T23:19:41.473Z,12.97
2023-01-17T23:22:16.832Z,12.57
2023-01-17T23:24:46.225Z,12.67
2023-01-17T23:27:39.921Z,11.63
2023-01-17T23:30:14.353Z,14.03
2023-01-17T23:32:46.099Z,13.07
2023-01-17T23:35:14.052Z,13.97
2023-01-17T23:37:59.868Z,13.63
2023-01-17T23:40:26.529Z,13.17
2023-01-17T23:43:11.829Z,14.97
2023-01-17T23:45:39.440Z,13.47
2023-01-17T23:48:09.863Z,14.50
2023-01-17T23:50:39.360Z,14.10
2023-01-17T23:53:09.359Z,14.40
2023-01-17T23:55:40.977Z,17.40
2023-01-17T23:58:12.471Z,13.10
